Time;durP1;ratioP1;P1;durP2;ratioP2;P2;SDS_P1;SDS_P2;PMS_P1;PMS_P2;Temp;Humidity;BMP_temperature;BMP_pressure;BME280_temperature;BME280_humidity;BME280_pressure;Samples;Min_cycle;Max_cycle;Signal;HPM_P1;HPM_P2
2023/06/14 00:00:58;;;;;;;4.50;2.70;;;23.00;80.60;;;;;;11023667;32;20045;-74
2023/06/14 00:07:00;;;;;;;4.65;3.12;;;23.00;80.30;;;;;;11010034;32;20015;-73
2023/06/14 00:13:04;;;;;;;5.65;3.47;;;23.00;80.60;;;;;;11023460;32;20030;-73
2023/06/14 00:19:06;;;;;;;4.00;2.47;;;23.00;80.50;;;;;;11023221;32;20060;-73
2023/06/14 00:25:08;;;;;;;4.45;2.90;;;23.10;80.20;;;;;;11023046;32;20069;-74
2023/06/14 00:31:10;;;;;;;3.72;2.30;;;23.00;80.50;;;;;;11009114;32;20052;-74
2023/06/14 00:37:12;;;;;;;7.35;3.10;;;23.00;80.90;;;;;;11022692;32;20022;-73
2023/06/14 00:43:15;;;;;;;5.32;2.58;;;22.90;80.90;;;;;;11022274;32;20022;-73
2023/06/14 00:49:20;;;;;;;5.32;2.53;;;22.90;80.80;;;;;;11020956;32;20026;-73
2023/06/14 00:55:22;;;;;;;4.82;2.87;;;22.90;80.50;;;;;;11007421;32;20061;-74
2023/06/14 01:01:24;;;;;;;4.43;2.65;;;23.00;80.40;;;;;;11007999;32;20022;-74
2023/06/14 01:07:35;;;;;;;8.30;3.17;;;22.90;80.30;;;;;;11021671;32;20022;-74
2023/06/14 01:13:45;;;;;;;5.55;2.08;;;22.80;80.40;;;;;;11021348;32;20455;-74
2023/06/14 01:19:48;;;;;;;2.60;2.12;;;22.70;80.20;;;;;;11019799;32;20045;-73
2023/06/14 01:25:55;;;;;;;3.28;2.12;;;22.80;79.90;;;;;;11006512;32;20038;-73
2023/06/14 01:31:57;;;;;;;2.92;2.03;;;22.80;79.80;;;;;;11020699;32;20025;-73
2023/06/14 01:38:00;;;;;;;5.78;2.90;;;22.80;79.70;;;;;;11006164;32;20446;-73
2023/06/14 01:44:05;;;;;;;3.80;3.10;;;22.80;79.80;;;;;;11020250;32;20400;-74
2023/06/14 01:50:08;;;;;;;5.57;2.42;;;22.80;79.70;;;;;;11003282;32;20057;-73
2023/06/14 01:56:11;;;;;;;5.72;3.55;;;22.70;79.80;;;;;;11019910;32;20042;-74
2023/06/14 02:02:14;;;;;;;3.85;2.85;;;22.60;80.10;;;;;;11015784;32;20026;-73
2023/06/14 02:08:16;;;;;;;5.72;3.70;;;22.40;80.30;;;;;;11019137;32;20045;-74
2023/06/14 02:14:18;;;;;;;5.62;2.97;;;22.40;80.30;;;;;;11020289;32;20025;-73
2023/06/14 02:20:20;;;;;;;6.37;3.72;;;22.40;80.20;;;;;;11019554;32;20022;-73
2023/06/14 02:26:22;;;;;;;5.50;3.58;;;22.40;80.20;;;;;;11001345;32;20437;-74
2023/06/14 02:32:26;;;;;;;5.90;3.40;;;22.50;80.10;;;;;;11018705;32;20027;-74
2023/06/14 02:38:28;;;;;;;7.20;4.60;;;22.50;80.00;;;;;;11019516;32;20435;-73
2023/06/14 02:44:35;;;;;;;6.28;4.28;;;22.50;79.80;;;;;;11018894;32;20022;-73
2023/06/14 02:50:40;;;;;;;6.47;4.45;;;22.50;79.90;;;;;;11005352;32;20035;-73
2023/06/14 02:56:43;;;;;;;7.30;4.60;;;22.40;80.00;;;;;;11005552;32;20010;-73
2023/06/14 03:02:45;;;;;;;5.53;4.00;;;22.40;79.90;;;;;;11018322;32;20018;-73
2023/06/14 03:08:48;;;;;;;6.18;4.32;;;22.30;79.90;;;;;;11018153;32;20054;-74
2023/06/14 03:14:51;;;;;;;6.93;3.55;;;22.20;80.20;;;;;;11004545;32;20034;-73
2023/06/14 03:20:56;;;;;;;5.87;3.80;;;22.20;80.20;;;;;;11008865;32;20018;-73
2023/06/14 03:26:59;;;;;;;5.37;3.28;;;22.20;80.20;;;;;;11010856;32;20449;-73
2023/06/14 03:33:02;;;;;;;4.78;3.28;;;22.20;80.20;;;;;;11025037;32;20324;-73
2023/06/14 03:39:05;;;;;;;5.50;3.58;;;22.20;80.10;;;;;;11012485;32;20038;-73
2023/06/14 03:45:07;;;;;;;5.05;3.15;;;22.20;80.00;;;;;;11024479;32;20045;-73
2023/06/14 03:51:10;;;;;;;4.97;3.40;;;22.20;80.10;;;;;;11024969;32;20030;-73
2023/06/14 03:57:13;;;;;;;3.92;3.12;;;22.10;80.10;;;;;;11024235;32;20049;-73
2023/06/14 04:03:17;;;;;;;6.85;3.55;;;22.10;80.20;;;;;;11009613;32;20042;-74
2023/06/14 04:09:19;;;;;;;6.82;3.33;;;22.10;80.30;;;;;;11009737;32;20053;-73
2023/06/14 04:15:21;;;;;;;4.57;3.10;;;22.10;80.10;;;;;;11023482;32;20045;-74
2023/06/14 04:21:27;;;;;;;5.72;3.50;;;22.10;80.30;;;;;;11023389;32;20041;-73
2023/06/14 04:27:36;;;;;;;3.95;2.95;;;22.10;80.20;;;;;;11007059;32;20034;-74
2023/06/14 04:33:43;;;;;;;5.15;3.22;;;22.20;80.10;;;;;;11009581;32;20049;-74
2023/06/14 04:39:45;;;;;;;9.45;4.25;;;22.20;80.30;;;;;;11023882;32;20049;-74
2023/06/14 04:45:48;;;;;;;5.62;3.65;;;22.20;80.50;;;;;;11023206;32;20061;-73
2023/06/14 04:51:57;;;;;;;5.18;3.37;;;22.30;80.40;;;;;;11007428;32;20038;-74
2023/06/14 04:57:59;;;;;;;6.30;3.95;;;22.40;80.50;;;;;;11021886;32;20022;-74
2023/06/14 05:04:02;;;;;;;5.87;3.83;;;22.50;80.50;;;;;;11009312;32;20336;-74
2023/06/14 05:10:05;;;;;;;5.50;3.87;;;22.60;80.60;;;;;;11007119;32;20316;-74
2023/06/14 05:16:08;;;;;;;4.82;3.15;;;22.70;80.90;;;;;;11023229;32;20355;-74
2023/06/14 05:22:10;;;;;;;7.00;2.87;;;22.70;81.00;;;;;;11021542;32;20018;-74
2023/06/14 05:28:12;;;;;;;5.75;3.33;;;22.90;80.70;;;;;;11021319;32;20025;-74
2023/06/14 05:34:14;;;;;;;4.70;2.55;;;22.90;80.60;;;;;;11021677;32;20442;-74
2023/06/14 05:40:17;;;;;;;4.82;2.60;;;23.00;80.50;;;;;;11005807;32;20076;-74
2023/06/14 05:46:24;;;;;;;5.55;3.67;;;23.00;80.60;;;;;;11020992;32;20018;-74
2023/06/14 05:52:26;;;;;;;3.30;2.17;;;23.10;80.70;;;;;;11020428;32;20022;-74
2023/06/14 05:58:28;;;;;;;4.22;2.45;;;23.00;80.90;;;;;;10993287;32;20061;-74
2023/06/14 06:04:30;;;;;;;4.18;2.85;;;23.00;81.10;;;;;;11019172;32;20416;-73
2023/06/14 06:10:32;;;;;;;3.65;2.42;;;23.00;81.00;;;;;;11001178;32;20045;-74
2023/06/14 06:16:35;;;;;;;4.30;2.65;;;23.10;81.10;;;;;;11018888;32;20049;-73
2023/06/14 06:22:38;;;;;;;4.25;2.80;;;23.00;81.30;;;;;;11018825;32;20041;-74
2023/06/14 06:28:40;;;;;;;4.90;3.00;;;23.10;81.30;;;;;;11018514;32;20045;-73
2023/06/14 06:34:42;;;;;;;6.97;2.85;;;23.30;81.40;;;;;;11018106;32;20037;-71
2023/06/14 06:40:44;;;;;;;4.40;3.03;;;23.30;80.70;;;;;;11003076;32;20038;-73
2023/06/14 06:46:47;;;;;;;5.35;3.42;;;23.30;80.90;;;;;;11018145;32;20022;-74
2023/06/14 06:52:49;;;;;;;5.65;3.92;;;23.60;81.00;;;;;;10996066;32;20040;-74
2023/06/14 06:58:51;;;;;;;5.03;3.22;;;23.60;80.90;;;;;;11017141;32;20023;-74
2023/06/14 07:04:53;;;;;;;4.25;2.37;;;23.80;80.70;;;;;;11017710;32;20064;-72
2023/06/14 07:10:55;;;;;;;7.12;3.22;;;23.90;80.10;;;;;;11017402;32;20015;-73
2023/06/14 07:16:57;;;;;;;4.40;2.97;;;24.00;80.30;;;;;;11017255;32;20340;-73
2023/06/14 07:22:59;;;;;;;10.60;3.25;;;24.20;80.30;;;;;;11017159;32;20015;-73
2023/06/14 07:29:01;;;;;;;3.42;2.50;;;24.30;79.70;;;;;;10979239;27;20026;-72
2023/06/14 07:35:06;;;;;;;7.32;3.47;;;24.40;78.80;;;;;;10965020;32;20052;-73
2023/06/14 07:41:09;;;;;;;3.58;2.25;;;24.40;78.70;;;;;;10965566;32;20019;-72
2023/06/14 07:47:11;;;;;;;4.50;3.22;;;24.50;79.10;;;;;;10978864;32;20038;-73
2023/06/14 07:53:13;;;;;;;3.83;1.92;;;24.70;78.70;;;;;;10962219;32;20026;-73
2023/06/14 07:59:15;;;;;;;5.28;3.10;;;24.80;78.90;;;;;;10964295;32;20033;-73
2023/06/14 08:05:17;;;;;;;4.90;3.08;;;24.90;77.80;;;;;;10980773;32;20037;-74
2023/06/14 08:11:20;;;;;;;5.12;3.10;;;24.80;76.30;;;;;;10985408;32;20019;-72
2023/06/14 08:17:22;;;;;;;3.20;2.17;;;24.90;76.10;;;;;;10981095;32;20007;-74
2023/06/14 08:23:24;;;;;;;6.87;2.97;;;25.00;76.80;;;;;;10982590;32;20044;-73
2023/06/14 08:29:29;;;;;;;3.80;2.00;;;24.90;77.40;;;;;;10984658;32;20015;-72
2023/06/14 08:35:31;;;;;;;3.75;2.35;;;24.80;77.10;;;;;;10984096;32;20049;-74
2023/06/14 08:41:33;;;;;;;6.43;2.67;;;24.80;77.10;;;;;;10983985;32;20014;-73
2023/06/14 08:47:36;;;;;;;5.12;2.47;;;25.00;76.30;;;;;;10971452;32;20396;-73
2023/06/14 08:53:41;;;;;;;3.80;2.50;;;25.30;75.20;;;;;;10985127;32;20077;-72
2023/06/14 08:59:53;;;;;;;4.57;2.87;;;25.60;73.40;;;;;;10969880;32;20077;-72
2023/06/14 09:05:58;;;;;;;6.18;2.70;;;25.80;72.00;;;;;;10970979;32;20014;-73
2023/06/14 09:12:00;;;;;;;11.20;2.90;;;25.90;71.80;;;;;;10969481;32;20038;-73
2023/06/14 09:18:02;;;;;;;17.52;2.42;;;26.10;71.60;;;;;;10982350;32;20324;-74
2023/06/14 09:24:04;;;;;;;4.45;3.12;;;26.30;73.60;;;;;;10983376;32;20019;-72
2023/06/14 09:30:09;;;;;;;3.55;2.65;;;26.30;74.60;;;;;;10982882;32;20344;-73
2023/06/14 09:36:15;;;;;;;6.32;2.85;;;26.30;74.20;;;;;;10979581;32;20044;-73
2023/06/14 09:42:23;;;;;;;3.72;2.22;;;26.30;73.60;;;;;;10981888;32;20389;-73
2023/06/14 09:48:25;;;;;;;3.60;2.05;;;26.40;71.80;;;;;;10970319;32;20389;-74
2023/06/14 09:54:29;;;;;;;5.00;3.25;;;26.60;72.70;;;;;;10977687;32;20050;-71
2023/06/14 10:00:33;;;;;;;4.60;2.80;;;26.80;73.30;;;;;;10982763;32;20049;-74
2023/06/14 10:06:41;;;;;;;10.48;3.90;;;26.90;72.80;;;;;;10968652;32;20381;-71
2023/06/14 10:12:43;;;;;;;6.12;3.95;;;27.20;72.20;;;;;;10944630;32;20019;-72
2023/06/14 10:18:59;;;;;;;3.60;2.30;;;27.30;73.60;;;;;;10943298;32;20015;-73
2023/06/14 10:25:02;;;;;;;4.12;2.55;;;27.30;73.40;;;;;;10929156;32;20026;-73
2023/06/14 10:31:11;;;;;;;3.08;2.10;;;27.50;73.50;;;;;;10942779;32;20010;-72
2023/06/14 10:37:14;;;;;;;4.43;2.75;;;27.60;71.80;;;;;;10944175;32;20421;-74
2023/06/14 10:43:25;;;;;;;5.37;3.42;;;27.80;70.90;;;;;;10943853;32;20042;-76
2023/06/14 10:49:41;;;;;;;4.00;3.05;;;27.90;68.90;;;;;;10943329;32;20029;-73
2023/06/14 10:55:49;;;;;;;4.22;2.60;;;27.80;68.40;;;;;;10942182;32;20010;-73
2023/06/14 11:02:27;;;;;;;6.45;2.30;;;27.80;67.50;;;;;;10943128;32;20042;-72
2023/06/14 11:09:07;;;;;;;3.95;2.28;;;28.00;68.00;;;;;;10942770;32;20038;-73
2023/06/14 11:15:09;;;;;;;4.35;2.72;;;28.40;68.90;;;;;;10927814;32;20082;-73
2023/06/14 11:21:40;;;;;;;4.15;2.50;;;28.30;68.70;;;;;;10943116;32;20341;-73
2023/06/14 11:27:43;;;;;;;4.05;2.33;;;28.60;66.80;;;;;;10942202;32;20357;-73
2023/06/14 11:33:50;;;;;;;2.50;2.05;;;28.80;66.90;;;;;;10942656;32;20049;-75
2023/06/14 11:39:52;;;;;;;6.18;3.28;;;29.10;65.70;;;;;;10928940;32;20435;-73
2023/06/14 11:45:54;;;;;;;5.90;2.70;;;29.30;64.40;;;;;;10934885;32;20023;-73
2023/06/14 11:51:56;;;;;;;3.70;2.70;;;29.40;63.90;;;;;;10948654;32;20337;-75
2023/06/14 11:57:59;;;;;;;4.62;2.90;;;29.00;66.50;;;;;;10948228;32;20015;-73
2023/06/14 12:04:29;;;;;;;4.10;2.22;;;28.90;66.00;;;;;;10948852;32;20019;-75
2023/06/14 12:10:43;;;;;;;5.18;2.70;;;29.20;68.40;;;;;;10948633;32;20019;-73
2023/06/14 12:16:45;;;;;;;6.35;3.80;;;29.40;64.80;;;;;;10949706;32;20313;-73
2023/06/14 12:22:58;;;;;;;9.18;2.92;;;29.40;67.00;;;;;;10948201;32;20401;-73
2023/06/14 12:29:00;;;;;;;5.37;3.60;;;29.10;66.70;;;;;;10947346;32;20050;-72
2023/06/14 12:35:02;;;;;;;4.62;2.80;;;29.10;65.90;;;;;;10935099;32;20094;-75
2023/06/14 12:41:05;;;;;;;6.72;2.50;;;29.10;64.40;;;;;;10948325;32;20022;-73
2023/06/14 12:47:08;;;;;;;7.05;3.55;;;28.80;63.10;;;;;;10946711;32;20316;-71
2023/06/14 12:53:10;;;;;;;3.92;2.47;;;28.90;64.30;;;;;;10946318;32;20050;-74
2023/06/14 12:59:12;;;;;;;4.15;2.80;;;29.10;62.60;;;;;;10946356;32;20030;-74
2023/06/14 13:05:14;;;;;;;3.10;2.08;;;29.40;61.30;;;;;;10931948;32;20035;-72
2023/06/14 13:11:31;;;;;;;5.22;2.37;;;29.50;61.00;;;;;;10933169;32;20041;-73
2023/06/14 13:18:05;;;;;;;5.18;3.42;;;29.50;59.30;;;;;;10936287;32;20019;-73
2023/06/14 13:24:17;;;;;;;4.00;2.45;;;29.60;59.30;;;;;;10931514;32;20405;-73
2023/06/14 13:30:25;;;;;;;4.68;2.72;;;29.50;59.20;;;;;;10944754;32;20053;-73
2023/06/14 13:36:27;;;;;;;4.25;2.70;;;29.50;59.20;;;;;;10944689;32;20010;-73
2023/06/14 13:42:31;;;;;;;3.20;2.05;;;29.50;57.70;;;;;;10962447;32;20081;-74
2023/06/14 13:48:33;;;;;;;7.82;2.62;;;29.60;58.40;;;;;;10968169;32;20035;-74
2023/06/14 13:54:35;;;;;;;5.03;2.50;;;29.60;62.70;;;;;;10980836;32;20022;-73
2023/06/14 14:00:40;;;;;;;1.87;1.52;;;29.40;60.50;;;;;;10981442;32;20054;-73
2023/06/14 14:06:42;;;;;;;4.90;2.15;;;29.50;58.80;;;;;;10980788;32;20041;-73
2023/06/14 14:12:48;;;;;;;6.53;3.72;;;29.40;57.90;;;;;;10981014;32;20074;-73
2023/06/14 14:18:50;;;;;;;4.45;3.05;;;29.30;62.50;;;;;;10967299;32;20066;-73
2023/06/14 14:24:52;;;;;;;3.92;2.37;;;28.90;61.90;;;;;;10980492;32;20015;-73
2023/06/14 14:30:54;;;;;;;3.72;2.00;;;28.80;61.20;;;;;;10978431;32;20085;-72
2023/06/14 14:36:56;;;;;;;8.00;3.12;;;28.80;61.60;;;;;;10943852;32;20061;-73
2023/06/14 14:42:58;;;;;;;5.57;2.83;;;28.80;62.20;;;;;;10948893;32;20042;-73
2023/06/14 14:49:00;;;;;;;3.58;2.53;;;28.90;61.70;;;;;;10974984;32;20022;-73
2023/06/14 14:55:03;;;;;;;3.75;2.12;;;29.00;61.60;;;;;;10950313;32;20409;-73
2023/06/14 15:01:05;;;;;;;7.47;3.62;;;29.00;60.40;;;;;;10927600;32;20019;-73
2023/06/14 15:07:07;;;;;;;4.05;2.55;;;29.00;60.00;;;;;;10940709;32;20030;-73
2023/06/14 15:13:32;;;;;;;4.95;3.03;;;29.00;63.00;;;;;;10963644;32;20073;-73
2023/06/14 15:19:35;;;;;;;6.07;2.80;;;28.90;60.40;;;;;;10978289;32;20015;-73
2023/06/14 15:25:37;;;;;;;3.73;2.53;;;28.80;62.00;;;;;;10392269;27;18269393;-73
2023/06/14 15:31:39;;;;;;;5.80;2.97;;;28.80;62.10;;;;;;10789600;33;20021;-74
2023/06/14 15:37:41;;;;;;;4.22;2.65;;;29.00;62.40;;;;;;10752187;33;20032;-73
2023/06/14 15:43:44;;;;;;;3.37;2.20;;;28.90;61.00;;;;;;10752739;33;20423;-73
2023/06/14 15:49:47;;;;;;;5.25;3.55;;;29.10;60.00;;;;;;10752888;33;20535;-73
2023/06/14 15:55:49;;;;;;;7.62;3.08;;;29.10;59.00;;;;;;10771674;33;20032;-73
2023/06/14 16:01:52;;;;;;;6.35;2.08;;;29.20;57.50;;;;;;10933682;32;20423;-73
2023/06/14 16:07:55;;;;;;;5.00;2.37;;;29.20;57.20;;;;;;10978882;32;20400;-73
2023/06/14 16:13:57;;;;;;;4.55;2.50;;;29.20;57.40;;;;;;10978536;32;20045;-73
2023/06/14 16:19:59;;;;;;;4.37;2.30;;;29.00;57.50;;;;;;10964706;32;20057;-74
2023/06/14 16:32:47;;;;;;;3.22;1.80;;;28.80;58.10;;;;;;10970973;32;20042;-74
2023/06/14 16:38:52;;;;;;;4.10;2.45;;;28.80;57.70;;;;;;10920466;32;20011;-74
2023/06/14 16:44:54;;;;;;;2.47;1.73;;;28.90;57.40;;;;;;10983219;32;20019;-73
2023/06/14 16:50:56;;;;;;;2.75;1.50;;;28.90;57.40;;;;;;10984139;32;20033;-74
2023/06/14 16:56:58;;;;;;;5.22;2.08;;;28.80;57.60;;;;;;10983984;32;20014;-73
2023/06/14 17:03:01;;;;;;;4.15;1.67;;;28.90;56.60;;;;;;10983229;32;20051;-74
2023/06/14 17:09:03;;;;;;;2.83;1.65;;;28.90;56.50;;;;;;10983513;32;20014;-74
2023/06/14 17:15:05;;;;;;;2.85;1.65;;;28.80;56.90;;;;;;10983284;32;20016;-73
2023/06/14 17:21:08;;;;;;;4.05;1.60;;;28.70;56.30;;;;;;10981804;32;20022;-74
2023/06/14 17:27:11;;;;;;;5.60;1.80;;;28.60;57.40;;;;;;10979092;32;20081;-74
2023/06/14 17:33:12;;;;;;;2.62;1.62;;;28.50;57.90;;;;;;10980273;32;20393;-74
2023/06/14 17:39:15;;;;;;;3.10;1.50;;;28.40;58.80;;;;;;10980357;32;20040;-73
2023/06/14 17:45:16;;;;;;;4.07;1.75;;;28.30;59.70;;;;;;10982234;32;20052;-73
2023/06/14 17:51:20;;;;;;;3.35;1.65;;;28.20;60.40;;;;;;10981043;32;20015;-74
2023/06/14 17:57:22;;;;;;;5.75;1.80;;;28.10;61.30;;;;;;10981669;32;20018;-74
2023/06/14 18:03:24;;;;;;;2.47;1.30;;;27.90;62.00;;;;;;10981561;32;20041;-74
2023/06/14 18:09:27;;;;;;;2.45;1.60;;;27.80;62.80;;;;;;10977372;32;20014;-74
2023/06/14 18:15:29;;;;;;;2.90;1.50;;;27.70;63.80;;;;;;10981101;32;20037;-74
2023/06/14 18:21:31;;;;;;;1.52;0.93;;;27.50;64.40;;;;;;10980526;32;20031;-74
2023/06/14 18:27:33;;;;;;;1.87;0.98;;;27.50;65.00;;;;;;10980735;32;20344;-74
2023/06/14 18:33:35;;;;;;;1.55;1.08;;;27.40;65.60;;;;;;10966836;32;20065;-74
2023/06/14 18:39:37;;;;;;;2.03;1.25;;;27.30;66.00;;;;;;10980352;32;20011;-74
2023/06/14 18:45:39;;;;;;;1.92;1.08;;;27.20;66.50;;;;;;10980351;32;20349;-73
2023/06/14 18:51:42;;;;;;;1.75;0.82;;;27.10;67.00;;;;;;10979849;32;20010;-73
2023/06/14 18:57:44;;;;;;;2.55;1.45;;;27.00;67.50;;;;;;10978856;32;20034;-73
2023/06/14 19:03:46;;;;;;;1.83;1.17;;;27.00;67.90;;;;;;10979388;32;20027;-73
2023/06/14 19:09:48;;;;;;;1.77;1.20;;;26.90;68.40;;;;;;10975658;32;20053;-73
2023/06/14 19:15:53;;;;;;;2.45;1.40;;;26.90;68.70;;;;;;10978050;32;20019;-73
2023/06/14 19:21:55;;;;;;;2.30;1.50;;;26.80;68.90;;;;;;10979456;32;20324;-73
2023/06/14 19:27:57;;;;;;;1.95;1.25;;;26.80;69.50;;;;;;10979064;32;20010;-73
2023/06/14 19:34:00;;;;;;;5.87;1.98;;;26.80;69.70;;;;;;10979184;32;20027;-73
2023/06/14 19:40:03;;;;;;;1.67;1.30;;;26.60;70.10;;;;;;10978863;32;20033;-73
2023/06/14 19:46:06;;;;;;;3.05;1.27;;;26.40;70.60;;;;;;10978959;32;20022;-73
2023/06/14 19:52:16;;;;;;;2.53;1.45;;;26.40;71.40;;;;;;10964038;32;20061;-73
2023/06/14 19:58:19;;;;;;;3.75;1.48;;;26.30;72.70;;;;;;10978619;32;20389;-73
2023/06/14 20:04:21;;;;;;;1.73;1.23;;;26.30;72.70;;;;;;10984531;32;20033;-73
2023/06/14 20:10:35;;;;;;;2.97;1.67;;;26.20;72.70;;;;;;10985611;32;20014;-73
2023/06/14 20:16:37;;;;;;;1.58;1.20;;;26.10;72.80;;;;;;10984291;32;20045;-73
2023/06/14 20:22:39;;;;;;;1.67;1.33;;;26.10;72.90;;;;;;10985246;32;20034;-73
2023/06/14 20:29:01;;;;;;;3.05;1.73;;;26.10;73.00;;;;;;10982213;32;20462;-73
2023/06/14 20:35:03;;;;;;;4.75;3.25;;;26.10;73.40;;;;;;10981682;32;20022;-72
2023/06/14 20:41:30;;;;;;;4.75;3.00;;;25.80;73.50;;;;;;10984597;32;20019;-71
2023/06/14 20:47:32;;;;;;;5.28;3.45;;;25.60;72.50;;;;;;10984345;32;20439;-72
2023/06/14 20:53:35;;;;;;;5.05;3.55;;;25.40;72.70;;;;;;10980158;32;20356;-73
2023/06/14 20:59:40;;;;;;;4.57;3.17;;;25.30;72.60;;;;;;10982602;32;20031;-72
2023/06/14 21:05:42;;;;;;;6.53;4.40;;;25.20;72.60;;;;;;10983881;32;20006;-73
2023/06/14 21:11:44;;;;;;;4.60;2.65;;;25.10;73.00;;;;;;10983575;32;20027;-74
2023/06/14 21:17:46;;;;;;;5.28;3.75;;;25.00;73.10;;;;;;10980758;32;20434;-73
2023/06/14 21:23:48;;;;;;;6.37;4.53;;;25.00;74.00;;;;;;10983325;32;20408;-74
2023/06/14 21:29:52;;;;;;;6.25;4.03;;;24.90;74.40;;;;;;10963413;32;20066;-73
2023/06/14 21:35:54;;;;;;;18.35;5.10;;;24.80;75.00;;;;;;10968602;32;20424;-74
2023/06/14 21:41:56;;;;;;;6.30;4.00;;;24.60;76.00;;;;;;10976740;32;20045;-73
2023/06/14 21:47:58;;;;;;;3.62;2.67;;;24.00;77.40;;;;;;10979115;32;20023;-73
2023/06/14 21:54:00;;;;;;;5.47;3.75;;;23.80;77.90;;;;;;10981986;32;20076;-71
2023/06/14 22:00:04;;;;;;;4.57;3.30;;;23.60;78.50;;;;;;10981833;32;20045;-71
2023/06/14 22:06:06;;;;;;;4.45;3.15;;;23.50;79.10;;;;;;10977772;32;20010;-70
2023/06/14 22:12:15;;;;;;;18.92;3.35;;;23.30;79.20;;;;;;10978339;32;20343;-70
2023/06/14 22:18:16;;;;;;;;;;;23.30;80.30;;;;;;10981512;32;20023;-71
2023/06/14 22:24:19;;;;;;;6.72;2.83;;;23.20;80.80;;;;;;10979532;32;19926;-72
2023/06/14 22:30:21;;;;;;;4.62;2.50;;;23.20;80.70;;;;;;10980853;32;20395;-71
2023/06/14 22:36:24;;;;;;;2.42;2.00;;;23.20;80.60;;;;;;10980599;32;20041;-70
2023/06/14 22:42:27;;;;;;;3.85;2.55;;;23.20;80.70;;;;;;10980398;32;20010;-71
2023/06/14 22:48:29;;;;;;;2.90;2.15;;;23.10;80.80;;;;;;10976198;32;20345;-70
2023/06/14 22:54:31;;;;;;;3.55;2.37;;;23.10;81.00;;;;;;10979904;32;20042;-73
2023/06/14 23:00:33;;;;;;;4.18;1.23;;;23.10;81.40;;;;;;10978382;32;20022;-70
2023/06/14 23:06:36;;;;;;;4.95;1.98;;;23.20;81.00;;;;;;10979767;32;20040;-71
2023/06/14 23:12:40;;;;;;;5.05;2.67;;;23.20;80.80;;;;;;10978434;32;20038;-70
2023/06/14 23:18:42;;;;;;;3.45;2.37;;;23.00;81.10;;;;;;10979558;32;20037;-71
2023/06/14 23:24:45;;;;;;;3.22;2.28;;;22.90;81.00;;;;;;10979441;32;20037;-70
2023/06/14 23:30:47;;;;;;;3.67;2.12;;;22.80;81.30;;;;;;10980984;26;20030;-70
2023/06/14 23:36:49;;;;;;;1.35;0.98;;;22.90;82.00;;;;;;10982332;32;20023;-70
2023/06/14 23:42:51;;;;;;;2.92;1.70;;;23.00;82.00;;;;;;10973437;32;20427;-70
2023/06/14 23:48:54;;;;;;;2.35;1.60;;;23.00;81.90;;;;;;10986352;32;20026;-70
2023/06/14 23:54:57;;;;;;;3.33;1.83;;;23.10;82.00;;;;;;10986346;32;20031;-70
